createdAt,value
2022-09-12T00:02:18.416Z,100036.78
2022-09-12T00:04:45.226Z,100042.78
2022-09-12T00:07:12.289Z,100036.22
2022-09-12T00:09:39.316Z,100038.81
2022-09-12T00:12:06.318Z,100035.28
2022-09-12T00:14:33.711Z,100039.69
2022-09-12T00:17:00.989Z,100040.94
2022-09-12T00:19:28.718Z,100040.59
2022-09-12T00:21:56.124Z,100041.81
2022-09-12T00:24:22.909Z,100042.06
2022-09-12T00:26:49.677Z,100040.47
2022-09-12T00:29:21.290Z,100043.88
2022-09-12T00:31:48.214Z,100044.09
2022-09-12T00:34:15.122Z,100045.09
2022-09-12T00:36:42.197Z,100037.84
2022-09-12T00:39:09.391Z,100034.66
2022-09-12T00:41:37.448Z,100035.91
2022-09-12T00:44:24.464Z,100030.91
2022-09-12T00:46:54.910Z,100025.56
2022-09-12T00:49:24.574Z,100024.75
2022-09-12T00:51:54.256Z,100023.38
2022-09-12T00:54:22.613Z,100020.78
2022-09-12T00:56:50.474Z,100011.59
2022-09-12T00:59:20.304Z,100018.81
2022-09-12T01:01:50.130Z,100005.56
2022-09-12T01:04:18.236Z,99999.53
2022-09-12T01:06:45.526Z,99995.72
2022-09-12T01:09:14.533Z,100001.16
2022-09-12T01:11:42.045Z,100001.97
2022-09-12T01:14:09.196Z,99999.53
2022-09-12T01:16:36.996Z,99996.34
2022-09-12T01:19:04.128Z,100004.97
2022-09-12T01:22:03.507Z,99997.16
2022-09-12T01:24:36.619Z,99997.38
2022-09-12T01:27:27.188Z,100000.78
2022-09-12T01:30:05.877Z,99996.81
2022-09-12T01:32:44.606Z,99990.88
2022-09-12T01:35:23.991Z,99999.63
2022-09-12T01:38:09.304Z,99998.47
2022-09-12T01:40:42.458Z,99999.38
2022-09-12T01:43:18.960Z,99994.59
2022-09-12T01:46:01.193Z,99984.59
2022-09-12T01:48:35.920Z,99994.00
2022-09-12T01:51:09.071Z,99996.63
2022-09-12T01:53:38.290Z,99992.41
2022-09-12T01:56:10.272Z,99994.00
2022-09-12T01:58:37.012Z,99993.22
2022-09-12T02:01:03.827Z,99987.34
2022-09-12T02:03:33.748Z,99987.34
2022-09-12T02:06:09.054Z,99987.69
2022-09-12T02:08:43.288Z,99989.66
2022-09-12T02:11:11.191Z,99981.50
2022-09-12T02:13:40.914Z,99985.84
2022-09-12T02:16:19.440Z,99981.19
2022-09-12T02:18:52.277Z,99976.91
2022-09-12T02:21:20.099Z,99979.97
2022-09-12T02:23:49.108Z,99979.09
2022-09-12T02:26:20.516Z,99979.56
2022-09-12T02:28:49.589Z,99975.16
2022-09-12T02:31:23.370Z,99976.16
2022-09-12T02:34:00.380Z,99966.84
2022-09-12T02:36:45.902Z,99979.59
2022-09-12T02:39:13.039Z,99968.94
2022-09-12T02:41:39.780Z,99971.44
2022-09-12T02:44:06.619Z,99976.19
2022-09-12T02:46:38.558Z,99973.38
2022-09-12T02:49:05.306Z,99968.81
2022-09-12T02:51:32.752Z,99967.00
2022-09-12T02:54:00.067Z,99966.31
2022-09-12T02:56:31.016Z,99966.69
2022-09-12T02:59:01.754Z,99971.44
2022-09-12T03:01:38.202Z,99969.94
2022-09-12T03:04:23.754Z,99966.44
2022-09-12T03:06:55.939Z,99971.53
2022-09-12T03:09:23.387Z,99961.34
2022-09-12T03:11:50.601Z,99965.63
2022-09-12T03:14:20.757Z,99974.25
2022-09-12T03:17:06.131Z,99976.88
2022-09-12T03:19:37.430Z,99968.59
2022-09-12T03:22:19.363Z,99965.63
2022-09-12T03:24:53.167Z,99962.00
2022-09-12T03:27:37.132Z,99963.28
2022-09-12T03:30:06.160Z,99971.66
2022-09-12T03:32:42.035Z,99968.69
2022-09-12T03:35:10.239Z,99967.81
2022-09-12T03:37:37.314Z,99968.59
2022-09-12T03:40:04.597Z,99965.06
2022-09-12T03:42:31.726Z,99970.72
2022-09-12T03:44:58.441Z,99960.44
2022-09-12T03:47:25.208Z,99962.44
2022-09-12T03:49:54.852Z,99965.53
2022-09-12T03:52:21.657Z,99950.53
2022-09-12T03:54:48.385Z,99960.41
2022-09-12T03:57:15.880Z,99956.19
2022-09-12T03:59:42.649Z,99972.88
2022-09-12T04:02:12.593Z,99961.88
2022-09-12T04:04:43.310Z,99971.06
2022-09-12T04:07:10.941Z,99965.53
2022-09-12T04:09:37.876Z,99965.53
2022-09-12T04:12:16.755Z,99959.94
2022-09-12T04:14:43.633Z,99970.97
2022-09-12T04:17:10.880Z,99966.19
2022-09-12T04:19:37.665Z,99970.84
2022-09-12T04:22:04.662Z,99971.41
2022-09-12T04:24:31.746Z,99963.78
2022-09-12T04:26:58.531Z,99962.78
2022-09-12T04:29:25.340Z,99964.25
2022-09-12T04:31:52.437Z,99971.44
2022-09-12T04:34:19.579Z,99965.28
2022-09-12T04:36:46.344Z,99964.84
2022-09-12T04:39:13.442Z,99971.22
2022-09-12T04:41:41.862Z,99967.91
2022-09-12T04:44:11.800Z,99967.47
2022-09-12T04:46:40.149Z,99954.75
2022-09-12T04:49:07.279Z,99964.50
2022-09-12T04:51:35.877Z,99958.03
2022-09-12T04:54:05.223Z,99970.09
2022-09-12T04:56:32.046Z,99969.59
2022-09-12T04:59:00.557Z,99974.94
2022-09-12T05:01:28.418Z,99964.16
2022-09-12T05:03:56.064Z,99974.00
2022-09-12T05:06:33.226Z,99968.00
2022-09-12T05:09:01.939Z,99978.44
2022-09-12T05:11:46.853Z,99971.41
2022-09-12T05:14:17.399Z,99979.25
2022-09-12T05:16:47.265Z,99992.84
2022-09-12T05:19:16.275Z,99985.16
2022-09-12T05:21:43.386Z,99986.63
2022-09-12T05:24:10.644Z,99995.22
2022-09-12T05:27:36.163Z,99997.81
2022-09-12T05:30:03.660Z,99998.25
2022-09-12T05:32:33.733Z,99994.00
2022-09-12T05:35:00.504Z,100004.13
2022-09-12T05:37:27.781Z,100006.28
2022-09-12T05:39:54.921Z,100011.66
2022-09-12T05:42:21.734Z,100004.59
2022-09-12T05:44:48.870Z,100007.41
2022-09-12T05:47:16.916Z,100008.50
2022-09-12T05:49:45.296Z,100003.50
2022-09-12T05:52:12.686Z,100011.59
2022-09-12T05:54:39.480Z,99997.47
2022-09-12T05:57:06.260Z,100011.41
2022-09-12T05:59:33.335Z,100019.72
2022-09-12T06:02:00.445Z,100011.00
2022-09-12T06:04:28.097Z,100013.84
2022-09-12T06:06:55.374Z,100012.34
2022-09-12T06:09:22.810Z,100013.25
2022-09-12T06:11:49.665Z,100020.66
2022-09-12T06:14:17.614Z,100018.66
2022-09-12T06:16:47.031Z,100017.78
2022-09-12T06:19:15.246Z,100018.56
2022-09-12T06:21:42.528Z,100021.31
2022-09-12T06:24:09.637Z,100021.06
2022-09-12T06:26:36.517Z,100028.69
2022-09-12T06:29:04.299Z,100038.59
2022-09-12T06:31:33.231Z,100032.56
2022-09-12T06:34:01.141Z,100034.94
2022-09-12T06:36:29.535Z,100043.25
2022-09-12T06:39:04.027Z,100044.41
2022-09-12T06:41:32.041Z,100053.28
2022-09-12T06:43:59.202Z,100060.50
2022-09-12T06:46:26.475Z,100049.22
2022-09-12T06:48:53.833Z,100064.81
2022-09-12T06:51:20.679Z,100062.75
2022-09-12T06:53:48.176Z,100058.56
2022-09-12T06:56:16.500Z,100055.31
2022-09-12T06:58:44.205Z,100065.34
2022-09-12T07:01:17.299Z,100051.84
2022-09-12T07:03:48.821Z,100051.41
2022-09-12T07:06:16.817Z,100053.00
2022-09-12T07:08:44.091Z,100049.41
2022-09-12T07:11:15.327Z,100048.75
2022-09-12T07:13:43.585Z,100045.63
2022-09-12T07:16:13.021Z,100052.22
2022-09-12T07:18:43.619Z,100056.00
2022-09-12T07:21:11.923Z,100059.47
2022-09-12T07:23:40.318Z,100067.81
2022-09-12T07:26:08.105Z,100063.88
2022-09-12T07:28:35.630Z,100069.19
2022-09-12T07:31:21.580Z,100067.91
2022-09-12T07:33:54.343Z,100065.03
2022-09-12T07:36:23.533Z,100065.81
2022-09-12T07:38:57.452Z,100065.53
2022-09-12T07:41:28.843Z,100067.69
2022-09-12T07:43:57.098Z,100066.09
2022-09-12T07:46:25.076Z,100071.13
2022-09-12T07:48:52.683Z,100067.72
2022-09-12T07:51:20.266Z,100077.72
2022-09-12T07:53:48.021Z,100082.97
2022-09-12T07:56:15.215Z,100081.25
2022-09-12T07:58:44.812Z,100080.38
2022-09-12T08:01:21.078Z,100084.31
2022-09-12T08:03:49.243Z,100089.16
2022-09-12T08:06:20.033Z,100086.22
2022-09-12T08:08:47.440Z,100087.47
2022-09-12T08:11:15.847Z,100083.75
2022-09-12T08:13:43.292Z,100081.31
2022-09-12T08:16:14.536Z,100080.19
2022-09-12T08:18:41.698Z,100083.50
2022-09-12T08:21:11.946Z,100097.16
2022-09-12T08:23:38.751Z,100096.63
2022-09-12T08:26:06.571Z,100093.41
2022-09-12T08:28:34.088Z,100099.16
2022-09-12T08:31:05.503Z,100097.78
2022-09-12T08:33:34.663Z,100100.22
2022-09-12T08:36:06.084Z,100098.03
2022-09-12T08:38:33.588Z,100094.28
2022-09-12T08:41:18.908Z,100102.06
2022-09-12T08:43:56.848Z,100092.69
2022-09-12T08:46:33.578Z,100100.94
2022-09-12T08:49:01.669Z,100099.81
2022-09-12T08:51:29.483Z,100096.53
2022-09-12T08:53:57.184Z,100106.19
2022-09-12T08:56:29.657Z,100105.09
2022-09-12T08:58:59.455Z,100095.38
2022-09-12T09:01:31.457Z,100089.72
2022-09-12T09:04:17.644Z,100094.88
2022-09-12T09:07:04.052Z,100087.00
2022-09-12T09:09:43.457Z,100094.16
2022-09-12T09:12:16.537Z,100092.38
2022-09-12T09:14:49.757Z,100095.09
2022-09-12T09:17:21.651Z,100090.56
2022-09-12T09:19:54.121Z,100088.75
2022-09-12T09:22:24.081Z,100092.50
2022-09-12T09:24:53.605Z,100095.25
2022-09-12T09:27:39.856Z,100095.88
2022-09-12T09:30:15.774Z,100100.97
2022-09-12T09:32:44.890Z,100096.50
2022-09-12T09:35:15.414Z,100098.63
2022-09-12T09:37:43.516Z,100101.19
2022-09-12T09:40:29.187Z,100091.72
2022-09-12T09:42:59.360Z,100090.81
2022-09-12T09:45:29.266Z,100086.84
2022-09-12T09:48:15.415Z,100086.66
2022-09-12T09:50:48.539Z,100070.59
2022-09-12T09:53:26.397Z,100073.47
2022-09-12T09:55:55.012Z,100066.13
2022-09-12T09:58:29.532Z,100066.88
2022-09-12T10:01:07.158Z,100058.16
2022-09-12T10:03:37.272Z,100061.03
2022-09-12T10:06:19.349Z,100051.28
2022-09-12T10:08:47.590Z,100051.50
2022-09-12T10:11:19.926Z,100045.66
2022-09-12T10:13:55.042Z,100059.06
2022-09-12T10:16:22.644Z,100053.78
2022-09-12T10:18:53.314Z,100064.69
2022-09-12T10:21:32.204Z,100062.91
2022-09-12T10:24:05.282Z,100065.59
2022-09-12T10:26:33.651Z,100054.81
2022-09-12T10:29:04.344Z,100054.28
2022-09-12T10:31:51.448Z,100052.69
2022-09-12T10:34:25.307Z,100055.31
2022-09-12T10:36:53.657Z,100056.59
2022-09-12T10:39:20.944Z,100056.53
2022-09-12T10:41:47.997Z,100050.50
2022-09-12T10:44:16.086Z,100058.16
2022-09-12T10:46:43.182Z,100053.41
2022-09-12T10:49:38.227Z,100047.56
2022-09-12T10:52:37.479Z,100047.84
2022-09-12T10:55:05.995Z,100046.84
2022-09-12T10:57:39.018Z,100044.53
2022-09-12T11:00:20.362Z,100046.88
2022-09-12T11:03:08.118Z,100044.94
2022-09-12T11:05:45.653Z,100047.56
2022-09-12T11:08:38.981Z,100039.19
2022-09-12T11:11:30.734Z,100032.53
2022-09-12T11:14:07.144Z,100027.69
2022-09-12T11:16:43.013Z,100025.69
2022-09-12T11:19:26.944Z,100021.63
2022-09-12T11:22:11.721Z,100017.59
2022-09-12T11:25:05.581Z,100030.38
2022-09-12T11:27:41.351Z,100017.91
2022-09-12T11:30:13.225Z,100019.03
2022-09-12T11:32:40.858Z,100025.34
2022-09-12T11:35:20.448Z,100025.59
2022-09-12T11:38:07.315Z,100021.72
2022-09-12T11:40:37.428Z,100024.97
2022-09-12T11:43:11.034Z,100020.56
2022-09-12T11:45:45.289Z,100025.53
2022-09-12T11:48:16.200Z,100023.94
2022-09-12T11:50:43.283Z,100020.22
2022-09-12T11:53:17.398Z,100028.09
2022-09-12T11:55:50.769Z,100021.19
2022-09-12T11:58:19.517Z,100022.22
2022-09-12T12:00:56.240Z,100022.28
2022-09-12T12:03:29.215Z,100019.44
2022-09-12T12:06:11.444Z,100009.41
2022-09-12T12:08:39.884Z,100010.22
2022-09-12T12:11:08.189Z,100000.72
2022-09-12T12:13:41.165Z,100001.50
2022-09-12T12:16:14.308Z,99987.47
2022-09-12T12:18:42.940Z,99989.47
2022-09-12T12:21:28.468Z,99985.13
2022-09-12T12:24:07.565Z,99980.50
2022-09-12T12:26:40.712Z,99975.09
2022-09-12T12:29:11.708Z,99973.19
2022-09-12T12:31:57.642Z,99972.34
2022-09-12T12:34:32.380Z,99968.81
2022-09-12T12:37:19.592Z,99962.78
2022-09-12T12:39:50.400Z,99970.97
2022-09-12T12:42:35.757Z,99973.94
2022-09-12T12:45:08.586Z,99977.25
2022-09-12T12:47:38.691Z,99969.91
2022-09-12T12:50:20.724Z,99968.44
2022-09-12T12:52:49.722Z,99968.81
2022-09-12T12:55:23.891Z,99957.78
2022-09-12T12:57:51.793Z,99962.25
2022-09-12T13:00:24.780Z,99969.59
2022-09-12T13:03:00.478Z,99963.31
2022-09-12T13:05:28.331Z,99971.44
2022-09-12T13:07:58.497Z,99970.22
2022-09-12T13:10:27.038Z,99968.66
2022-09-12T13:12:53.942Z,99961.19
2022-09-12T13:15:47.849Z,99968.34
2022-09-12T13:18:47.309Z,99967.34
2022-09-12T13:21:19.142Z,99977.91
2022-09-12T13:23:59.550Z,99971.13
2022-09-12T13:26:26.879Z,99967.56
2022-09-12T13:29:29.474Z,99966.06
2022-09-12T13:32:01.291Z,99961.47
2022-09-12T13:34:28.237Z,99954.91
2022-09-12T13:37:12.255Z,99962.97
2022-09-12T13:39:48.223Z,99960.19
2022-09-12T13:42:38.918Z,99955.50
2022-09-12T13:45:07.888Z,99957.19
2022-09-12T13:47:44.952Z,99955.38
2022-09-12T13:50:16.970Z,99951.63
2022-09-12T13:52:46.414Z,99955.75
2022-09-12T13:55:27.296Z,99948.63
2022-09-12T13:57:58.297Z,99949.31
2022-09-12T14:00:25.515Z,99952.00
2022-09-12T14:03:12.346Z,99942.81
2022-09-12T14:05:40.849Z,99952.50
2022-09-12T14:08:08.711Z,99950.28
2022-09-12T14:10:37.389Z,99943.81
2022-09-12T14:13:10.583Z,99955.94
2022-09-12T14:15:38.354Z,99953.97
2022-09-12T14:18:08.402Z,99951.59
2022-09-12T14:20:39.523Z,99949.22
2022-09-12T14:23:14.156Z,99952.44
2022-09-12T14:25:41.541Z,99952.72
2022-09-12T14:28:11.916Z,99953.28
2022-09-12T14:30:39.103Z,99948.81
2022-09-12T14:33:12.029Z,99943.00
2022-09-12T14:35:43.478Z,99946.72
2022-09-12T14:38:16.709Z,99942.31
2022-09-12T14:40:43.957Z,99940.47
2022-09-12T14:43:26.150Z,99932.06
2022-09-12T14:45:55.036Z,99936.78
2022-09-12T14:48:22.417Z,99936.81
2022-09-12T14:50:50.528Z,99932.66
2022-09-12T14:53:17.639Z,99932.16
2022-09-12T14:55:46.438Z,99933.78
2022-09-12T14:58:13.293Z,99936.97
2022-09-12T15:00:58.153Z,99929.63
2022-09-12T15:03:48.692Z,99931.22
2022-09-12T15:06:30.386Z,99929.63
2022-09-12T15:08:59.510Z,99927.53
2022-09-12T15:11:26.696Z,99921.19
2022-09-12T15:13:53.963Z,99933.28
2022-09-12T15:16:21.334Z,99930.94
2022-09-12T15:18:48.575Z,99930.66
2022-09-12T15:21:21.017Z,99924.88
2022-09-12T15:23:51.697Z,99929.59
2022-09-12T15:26:22.578Z,99933.53
2022-09-12T15:28:50.569Z,99934.88
2022-09-12T15:31:22.826Z,99936.97
2022-09-12T15:33:51.095Z,99936.97
2022-09-12T15:36:21.806Z,99930.97
2022-09-12T15:38:52.926Z,99938.59
2022-09-12T15:41:22.260Z,99936.25
2022-09-12T15:43:50.207Z,99934.66
2022-09-12T15:46:18.150Z,99937.06
2022-09-12T15:48:46.142Z,99929.69
2022-09-12T15:51:15.610Z,99930.50
2022-09-12T15:53:43.857Z,99935.75
2022-09-12T15:56:11.973Z,99935.50
2022-09-12T15:58:54.980Z,99928.13
2022-09-12T16:01:25.085Z,99926.50
2022-09-12T16:03:52.473Z,99933.63
2022-09-12T16:06:19.347Z,99934.41
2022-09-12T16:08:46.644Z,99933.38
2022-09-12T16:11:19.948Z,99925.97
2022-09-12T16:13:47.477Z,99936.00
2022-09-12T16:16:14.336Z,99940.47
2022-09-12T16:18:41.438Z,99941.28
2022-09-12T16:21:14.051Z,99934.19
2022-09-12T16:23:45.763Z,99933.38
2022-09-12T16:26:12.975Z,99935.22
2022-09-12T16:28:40.302Z,99934.69
2022-09-12T16:31:07.849Z,99938.66
2022-09-12T16:33:35.098Z,99936.81
2022-09-12T16:36:03.732Z,99937.59
2022-09-12T16:38:31.025Z,99929.41
2022-09-12T16:41:05.946Z,99936.25
2022-09-12T16:43:37.588Z,99937.06
2022-09-12T16:46:06.672Z,99929.66
2022-09-12T16:48:33.939Z,99927.00
2022-09-12T16:51:02.059Z,99924.38
2022-09-12T16:53:34.511Z,99933.28
2022-09-12T16:56:01.875Z,99937.25
2022-09-12T16:58:32.092Z,99933.28
2022-09-12T17:01:03.521Z,99932.22
2022-09-12T17:03:31.208Z,99942.47
2022-09-12T17:05:58.885Z,99936.16
2022-09-12T17:08:25.702Z,99937.94
2022-09-12T17:10:52.703Z,99935.59
2022-09-12T17:13:19.463Z,99936.34
2022-09-12T17:15:46.251Z,99934.44
2022-09-12T17:18:13.589Z,99928.38
2022-09-12T17:20:40.413Z,99939.69
2022-09-12T17:23:09.760Z,99941.03
2022-09-12T17:25:37.180Z,99952.53
2022-09-12T17:28:07.624Z,99950.94
2022-09-12T17:30:34.909Z,99949.38
2022-09-12T17:33:02.134Z,99953.00
2022-09-12T17:35:29.152Z,99952.50
2022-09-12T17:37:55.948Z,99954.84
2022-09-12T17:40:37.053Z,99959.81
2022-09-12T17:43:12.143Z,99963.69
2022-09-12T17:45:39.702Z,99968.91
2022-09-12T17:48:07.099Z,99964.34
2022-09-12T17:50:39.439Z,99972.72
2022-09-12T17:53:07.296Z,99972.13
2022-09-12T17:55:37.571Z,99970.22
2022-09-12T17:58:04.638Z,99968.88
2022-09-12T18:00:50.539Z,99974.91
2022-09-12T18:03:21.207Z,99969.91
2022-09-12T18:05:48.904Z,99961.47
2022-09-12T18:08:15.874Z,99971.97
2022-09-12T18:10:42.627Z,99969.28
2022-09-12T18:13:09.806Z,99973.41
2022-09-12T18:15:36.696Z,99967.81
2022-09-12T18:18:04.018Z,99973.31
2022-09-12T18:20:31.781Z,99971.09
2022-09-12T18:22:58.555Z,99971.00
2022-09-12T18:25:25.720Z,99974.38
2022-09-12T18:27:52.976Z,99979.34
2022-09-12T18:30:22.083Z,99975.84
2022-09-12T18:32:51.565Z,99982.41
2022-09-12T18:35:18.711Z,99981.31
2022-09-12T18:37:45.651Z,99978.63
2022-09-12T18:40:12.610Z,99985.94
2022-09-12T18:42:39.838Z,99978.78
2022-09-12T18:45:07.042Z,99987.41
2022-09-12T18:47:33.984Z,99986.31
2022-09-12T18:50:01.438Z,99985.72
2022-09-12T18:52:28.263Z,99981.78
2022-09-12T18:54:55.109Z,99974.66
2022-09-12T18:57:22.327Z,99978.31
2022-09-12T18:59:49.950Z,99985.06
2022-09-12T19:02:16.926Z,99981.88
2022-09-12T19:04:44.361Z,99986.28
2022-09-12T19:07:11.227Z,99997.47
2022-09-12T19:09:38.079Z,99988.44
2022-09-12T19:12:05.232Z,99996.00
2022-09-12T19:14:32.045Z,99986.78
2022-09-12T19:16:58.936Z,99983.81
2022-09-12T19:19:25.948Z,99987.19
2022-09-12T19:21:55.102Z,99981.84
2022-09-12T19:24:25.020Z,99988.63
2022-09-12T19:26:52.244Z,99993.53
2022-09-12T19:29:19.156Z,99982.25
2022-09-12T19:31:46.292Z,99987.50
2022-09-12T19:34:13.766Z,99988.75
2022-09-12T19:36:45.536Z,99990.81
2022-09-12T19:39:14.351Z,99981.63
2022-09-12T19:41:41.265Z,99986.31
2022-09-12T19:44:08.121Z,99981.56
2022-09-12T19:46:35.240Z,99984.06
2022-09-12T19:49:02.252Z,99983.84
2022-09-12T19:51:29.041Z,99986.69
2022-09-12T19:53:56.202Z,99992.16
2022-09-12T19:56:23.059Z,99986.81
2022-09-12T19:58:55.770Z,99991.75
2022-09-12T20:01:25.657Z,99984.16
2022-09-12T20:03:55.474Z,99992.72
2022-09-12T20:06:22.647Z,99983.97
2022-09-12T20:08:49.855Z,99981.84
2022-09-12T20:11:18.012Z,99988.91
2022-09-12T20:13:45.206Z,99981.47
2022-09-12T20:16:19.011Z,99984.88
2022-09-12T20:21:40.255Z,99984.59
2022-09-12T20:24:11.599Z,99977.75
2022-09-12T20:26:38.428Z,99973.00
2022-09-12T20:29:06.070Z,99974.84
2022-09-12T20:31:33.501Z,99984.72
2022-09-12T20:34:00.508Z,99984.41
2022-09-12T20:36:27.869Z,99980.91
2022-09-12T20:39:02.811Z,99978.19
2022-09-12T20:41:31.017Z,99978.41
2022-09-12T20:43:58.196Z,99979.69
2022-09-12T20:46:26.097Z,99987.78
2022-09-12T20:48:53.306Z,99984.13
2022-09-12T20:51:21.067Z,99985.16
2022-09-12T20:53:48.240Z,99988.78
2022-09-12T20:56:15.487Z,99984.81
2022-09-12T20:58:44.502Z,99983.47
2022-09-12T21:01:12.390Z,99983.69
2022-09-12T21:03:41.550Z,99983.16
2022-09-12T21:06:09.096Z,99986.19
2022-09-12T21:08:36.756Z,99983.03
2022-09-12T21:11:04.758Z,99982.69
2022-09-12T21:13:31.791Z,99975.22
2022-09-12T21:15:59.667Z,99979.34
2022-09-12T21:18:26.968Z,99987.06
2022-09-12T21:20:54.659Z,99982.78
2022-09-12T21:23:21.950Z,99981.84
2022-09-12T21:25:52.397Z,99971.06
2022-09-12T21:28:20.138Z,99973.13
2022-09-12T21:30:50.695Z,99981.66
2022-09-12T21:33:18.941Z,99977.09
2022-09-12T21:35:47.102Z,99987.81
2022-09-12T21:38:17.949Z,99979.59
2022-09-12T21:40:45.332Z,99982.44
2022-09-12T21:43:13.087Z,99990.50
2022-09-12T21:45:40.500Z,99981.31
2022-09-12T21:48:07.787Z,99978.34
2022-09-12T21:50:34.600Z,99981.88
2022-09-12T21:53:01.539Z,99975.19
2022-09-12T21:55:28.618Z,99974.84
2022-09-12T21:57:55.402Z,99986.31
2022-09-12T22:00:22.696Z,99981.53
2022-09-12T22:02:53.810Z,99975.72
2022-09-12T22:05:21.397Z,99977.31
2022-09-12T22:07:48.275Z,99977.31
2022-09-12T22:10:15.530Z,99985.38
2022-09-12T22:12:46.197Z,99986.44
2022-09-12T22:15:39.005Z,99979.81
2022-09-12T22:18:00.689Z,99980.31
2022-09-12T22:20:27.464Z,99977.53
2022-09-12T22:23:12.785Z,99986.84
2022-09-12T22:25:39.977Z,99976.84
2022-09-12T22:28:07.152Z,99985.69
2022-09-12T22:30:34.014Z,99978.44
2022-09-12T22:33:01.086Z,99975.84
2022-09-12T22:35:27.871Z,99973.22
2022-09-12T22:37:54.658Z,99974.13
2022-09-12T22:40:21.823Z,99984.41
2022-09-12T22:42:51.477Z,99976.94
2022-09-12T22:45:19.214Z,99978.41
2022-09-12T22:47:46.607Z,99978.25
2022-09-12T22:50:13.860Z,99978.50
2022-09-12T22:52:40.671Z,99980.19
2022-09-12T22:55:07.946Z,99977.00
2022-09-12T22:57:34.819Z,99973.25
2022-09-12T23:00:01.701Z,99967.44
2022-09-12T23:02:31.272Z,99975.88
2022-09-12T23:04:58.052Z,99975.88
2022-09-12T23:07:25.103Z,99980.28
2022-09-12T23:09:53.646Z,99983.69
2022-09-12T23:12:20.402Z,99977.22
2022-09-12T23:14:47.541Z,99965.84
2022-09-12T23:17:14.605Z,99984.81
2022-09-12T23:19:41.429Z,99975.41
2022-09-12T23:22:08.207Z,99975.63
2022-09-12T23:24:35.222Z,99975.88
2022-09-12T23:27:01.999Z,99967.44
2022-09-12T23:29:28.753Z,99969.47
2022-09-12T23:31:55.831Z,99967.91
2022-09-12T23:34:22.560Z,99963.47
2022-09-12T23:36:49.343Z,99964.25
2022-09-12T23:39:16.688Z,99967.09
2022-09-12T23:41:43.413Z,99964.13
2022-09-12T23:44:10.160Z,99961.16
2022-09-12T23:46:37.200Z,99959.78
2022-09-12T23:49:03.963Z,99958.88
2022-09-12T23:51:31.110Z,99952.03
2022-09-12T23:53:58.267Z,99949.66
2022-09-12T23:56:25.019Z,99948.06
2022-09-12T23:58:51.793Z,99943.28
